createdAt,value
2024-05-09T00:09:38.357Z,4.00
2024-05-09T00:19:40.254Z,6.20
2024-05-09T00:29:41.901Z,6.72
2024-05-09T00:39:43.564Z,6.10
2024-05-09T00:49:45.680Z,8.07
2024-05-09T00:59:47.867Z,7.32
2024-05-09T01:09:49.583Z,5.97
2024-05-09T01:19:51.267Z,6.57
2024-05-09T01:29:52.968Z,6.20
2024-05-09T01:39:54.621Z,5.37
2024-05-09T01:49:56.323Z,5.57
2024-05-09T01:59:58.040Z,6.40
2024-05-09T02:09:59.655Z,10.77
2024-05-09T02:20:01.411Z,10.63
2024-05-09T02:30:04.749Z,6.07
2024-05-09T02:40:11.729Z,5.85
2024-05-09T02:50:23.062Z,6.87
2024-05-09T03:00:38.196Z,6.90
2024-05-09T03:10:42.979Z,8.87
2024-05-09T03:20:45.006Z,9.20
2024-05-09T03:30:46.760Z,9.98
2024-05-09T03:40:50.238Z,10.20
2024-05-09T03:50:52.586Z,10.95
2024-05-09T04:00:54.398Z,10.77
2024-05-09T04:10:56.075Z,13.03
2024-05-09T04:20:57.835Z,12.57
2024-05-09T04:30:59.495Z,14.77
2024-05-09T04:41:01.190Z,13.25
2024-05-09T04:51:03.163Z,13.10
2024-05-09T05:01:05.034Z,15.00
2024-05-09T05:11:06.870Z,14.27
2024-05-09T05:21:08.668Z,18.60
2024-05-09T05:31:10.410Z,24.05
2024-05-09T05:41:12.215Z,19.03
2024-05-09T05:51:14.052Z,17.43
2024-05-09T06:01:16.108Z,17.10
2024-05-09T06:11:18.020Z,21.07
2024-05-09T06:21:19.825Z,19.67
2024-05-09T06:31:21.502Z,20.00
2024-05-09T06:41:23.238Z,25.67
2024-05-09T06:51:24.951Z,22.17
2024-05-09T07:01:26.676Z,22.27
2024-05-09T07:11:28.444Z,22.23
2024-05-09T07:21:30.196Z,19.10
2024-05-09T07:31:31.863Z,14.23
2024-05-09T07:41:33.688Z,13.80
2024-05-09T07:53:14.125Z,11.67
2024-05-09T08:01:57.175Z,10.60
2024-05-09T08:11:59.024Z,12.00
2024-05-09T08:22:00.886Z,9.40
2024-05-09T08:32:02.978Z,9.98
2024-05-09T08:42:07.419Z,13.70
2024-05-09T08:52:09.512Z,11.50
2024-05-09T09:02:14.228Z,9.23
2024-05-09T09:12:16.042Z,7.40
2024-05-09T09:22:17.776Z,9.73
2024-05-09T09:32:19.609Z,9.47
2024-05-09T09:42:23.272Z,7.10
2024-05-09T09:52:26.706Z,7.37
2024-05-09T10:02:28.534Z,7.20
2024-05-09T10:12:30.334Z,8.35
2024-05-09T10:22:32.150Z,4.87
2024-05-09T10:32:40.785Z,6.03
2024-05-09T10:42:42.557Z,5.20
2024-05-09T10:52:44.224Z,4.93
2024-05-09T11:02:47.916Z,4.78
2024-05-09T11:12:49.611Z,6.70
2024-05-09T11:22:51.301Z,4.20
2024-05-09T11:32:53.374Z,4.17
2024-05-09T11:42:55.217Z,5.00
2024-05-09T11:52:56.940Z,6.15
2024-05-09T12:02:58.604Z,4.73
2024-05-09T12:13:00.360Z,5.40
2024-05-09T12:23:02.062Z,4.80
2024-05-09T12:33:04.020Z,4.57
2024-05-09T12:43:10.277Z,4.90
2024-05-09T12:53:13.100Z,4.50
2024-05-09T13:03:15.143Z,6.93
2024-05-09T13:13:17.355Z,4.77
2024-05-09T13:23:19.200Z,4.77
2024-05-09T13:33:21.000Z,4.65
2024-05-09T13:43:22.858Z,5.47
2024-05-09T13:53:24.649Z,10.77
2024-05-09T14:03:26.442Z,5.17
2024-05-09T14:13:28.270Z,6.57
2024-05-09T14:23:29.961Z,5.63
2024-05-09T14:33:31.868Z,3.80
2024-05-09T14:43:33.707Z,18.15
2024-05-09T14:53:35.467Z,6.37
2024-05-09T15:03:37.291Z,4.77
2024-05-09T15:13:39.067Z,3.97
2024-05-09T15:23:41.304Z,5.47
2024-05-09T15:33:43.422Z,4.47
2024-05-09T15:43:45.127Z,4.70
2024-05-09T15:53:47.080Z,4.27
2024-05-09T16:03:49.383Z,5.47
2024-05-09T16:13:53.965Z,7.73
2024-05-09T16:23:55.959Z,4.00
2024-05-09T16:33:57.784Z,4.87
2024-05-09T16:43:59.549Z,8.13
2024-05-09T16:54:01.191Z,4.60
2024-05-09T17:04:03.058Z,5.83
2024-05-09T17:14:04.888Z,4.38
2024-05-09T17:24:06.724Z,5.50
2024-05-09T17:34:11.274Z,6.60
2024-05-09T17:44:13.087Z,5.28
2024-05-09T17:54:14.766Z,5.50
2024-05-09T18:04:17.823Z,7.03
2024-05-09T18:14:19.633Z,4.97
2024-05-09T18:24:21.386Z,5.00
2024-05-09T18:34:23.096Z,5.55
2024-05-09T18:44:24.843Z,4.10
2024-05-09T18:54:27.531Z,6.57
2024-05-09T19:04:29.430Z,4.23
2024-05-09T19:14:31.166Z,4.37
2024-05-09T19:24:33.047Z,4.72
2024-05-09T19:34:34.735Z,5.03
2024-05-09T19:44:36.400Z,5.35
2024-05-09T19:54:38.300Z,10.13
2024-05-09T20:04:40.116Z,6.50
2024-05-09T20:14:41.841Z,5.72
2024-05-09T20:24:43.578Z,6.23
2024-05-09T20:34:45.279Z,6.10
2024-05-09T20:44:46.930Z,5.27
2024-05-09T20:54:48.637Z,6.70
2024-05-09T21:04:50.466Z,6.00
2024-05-09T21:14:52.240Z,5.57
2024-05-09T21:24:53.935Z,6.82
2024-05-09T21:34:55.664Z,6.50
2024-05-09T21:44:57.390Z,12.73
2024-05-09T21:54:59.075Z,5.68
2024-05-09T22:05:00.914Z,5.73
2024-05-09T22:15:02.790Z,6.47
2024-05-09T22:25:04.741Z,5.50
2024-05-09T22:35:06.724Z,7.07
2024-05-09T22:45:09.884Z,7.68
2024-05-09T22:55:11.532Z,6.47
2024-05-09T23:05:13.346Z,7.35
2024-05-09T23:15:15.042Z,6.37
2024-05-09T23:25:16.732Z,5.60
2024-05-09T23:35:18.409Z,6.38
2024-05-09T23:45:20.158Z,8.80
2024-05-09T23:55:21.968Z,6.00
